Time;durP1;ratioP1;P1;durP2;ratioP2;P2;SDS_P1;SDS_P2;PMS_P1;PMS_P2;Temp;Humidity;BMP_temperature;BMP_pressure;BME280_temperature;BME280_humidity;BME280_pressure;Samples;Min_cycle;Max_cycle;Signal;HPM_P1;HPM_P2
2024/02/10 00:01:07;;;;;;;19.90;18.30;;;10.30;99.90;;;;;;4736192;30;20276;-45
2024/02/10 00:03:34;;;;;;;19.57;18.07;;;10.30;99.90;;;;;;4733033;30;20227;-42
2024/02/10 00:06:00;;;;;;;18.80;17.40;;;10.30;99.90;;;;;;4739222;30;20441;-40
2024/02/10 00:08:27;;;;;;;19.20;17.50;;;10.30;99.90;;;;;;4733652;30;20438;-44
2024/02/10 00:10:56;;;;;;;18.37;16.77;;;10.30;99.90;;;;;;4754159;30;21496;-43
2024/02/10 00:13:23;;;;;;;19.37;17.87;;;10.40;99.90;;;;;;4734238;30;20432;-43
2024/02/10 00:15:54;;;;;;;19.27;17.80;;;10.30;99.90;;;;;;4732468;30;20533;-43
2024/02/10 00:18:19;;;;;;;19.10;17.70;;;10.40;99.90;;;;;;4735158;30;20490;-40
2024/02/10 00:20:52;;;;;;;18.00;16.70;;;10.30;99.90;;;;;;4730056;30;20438;-43
2024/02/10 00:23:18;;;;;;;18.37;16.97;;;10.30;99.90;;;;;;4727517;30;20564;-44
2024/02/10 00:25:44;;;;;;;18.73;17.33;;;10.40;99.90;;;;;;4734460;30;20434;-46
2024/02/10 00:28:10;;;;;;;19.10;17.60;;;10.40;99.90;;;;;;4725039;30;20451;-41
2024/02/10 00:30:37;;;;;;;18.30;16.90;;;10.30;99.90;;;;;;4730458;30;20306;-42
2024/02/10 00:33:04;;;;;;;18.33;17.00;;;10.30;99.90;;;;;;4731403;30;20441;-42
2024/02/10 00:35:29;;;;;;;19.23;17.73;;;10.30;99.90;;;;;;4731510;30;20451;-42
2024/02/10 00:37:58;;;;;;;19.27;17.60;;;10.30;99.90;;;;;;4733823;30;20464;-43
2024/02/10 00:40:23;;;;;;;18.57;17.17;;;10.30;99.90;;;;;;4729985;30;20195;-42
2024/02/10 00:42:52;;;;;;;19.40;17.60;;;10.30;99.90;;;;;;4726724;30;20447;-40
2024/02/10 00:45:18;;;;;;;18.20;16.87;;;10.30;99.90;;;;;;4733121;30;20208;-40
2024/02/10 00:47:45;;;;;;;18.43;17.23;;;10.30;99.90;;;;;;4729751;30;20450;-42
2024/02/10 00:50:11;;;;;;;17.27;16.07;;;10.30;99.90;;;;;;4731538;30;20514;-40
2024/02/10 00:52:37;;;;;;;19.17;17.60;;;10.30;99.90;;;;;;4729592;30;20462;-40
2024/02/10 00:55:03;;;;;;;18.40;17.10;;;10.30;99.90;;;;;;4725605;30;20505;-43
2024/02/10 00:57:28;;;;;;;18.53;17.23;;;10.30;99.90;;;;;;4727444;30;20237;-45
2024/02/10 00:59:56;;;;;;;19.50;17.83;;;10.30;99.90;;;;;;4731014;30;20447;-42
2024/02/10 01:02:22;;;;;;;18.20;16.80;;;10.30;99.90;;;;;;4727683;30;20185;-41
2024/02/10 01:04:49;;;;;;;18.53;17.13;;;10.30;99.90;;;;;;4728772;30;20446;-40
2024/02/10 01:07:15;;;;;;;18.43;17.10;;;10.30;99.90;;;;;;4727441;30;20577;-40
2024/02/10 01:09:48;;;;;;;18.47;16.97;;;10.20;99.90;;;;;;4733885;30;20482;-43
2024/02/10 01:12:14;;;;;;;17.23;16.03;;;10.30;99.90;;;;;;4730504;30;20568;-43
2024/02/10 01:14:40;;;;;;;17.27;16.07;;;10.30;99.90;;;;;;4733975;30;20583;-41
2024/02/10 01:17:13;;;;;;;17.70;16.50;;;10.30;99.90;;;;;;4727981;30;20451;-44
2024/02/10 01:19:51;;;;;;;18.00;16.60;;;10.30;99.90;;;;;;4726612;30;20528;-43
2024/02/10 01:22:22;;;;;;;17.03;15.87;;;10.30;99.90;;;;;;4731274;30;20573;-42
2024/02/10 01:24:58;;;;;;;17.90;16.70;;;10.30;99.90;;;;;;4733109;30;20423;-41
2024/02/10 01:27:27;;;;;;;17.60;16.30;;;10.30;99.90;;;;;;4730496;30;20794;-42
2024/02/10 01:29:56;;;;;;;17.37;16.20;;;10.30;99.90;;;;;;4729074;30;20584;-42
2024/02/10 01:32:25;;;;;;;17.63;16.20;;;10.30;99.90;;;;;;4736967;30;20454;-42
2024/02/10 01:34:54;;;;;;;17.70;16.10;;;10.30;99.90;;;;;;4728553;30;20455;-41
2024/02/10 01:37:21;;;;;;;17.00;15.70;;;10.30;99.90;;;;;;4731577;30;20438;-40
2024/02/10 01:39:48;;;;;;;18.00;16.80;;;10.30;99.90;;;;;;4728454;30;20474;-46
2024/02/10 01:42:18;;;;;;;17.13;15.83;;;10.30;99.90;;;;;;4734578;30;20952;-47
2024/02/10 01:44:45;;;;;;;17.70;16.40;;;10.30;99.90;;;;;;4727819;30;20554;-41
2024/02/10 01:47:12;;;;;;;17.10;15.90;;;10.30;99.90;;;;;;4734501;30;20852;-41
2024/02/10 01:49:38;;;;;;;18.70;17.30;;;10.30;99.90;;;;;;4727285;30;20594;-44
2024/02/10 01:52:06;;;;;;;17.20;16.10;;;10.30;99.90;;;;;;4727952;30;20450;-40
2024/02/10 01:54:32;;;;;;;17.30;16.20;;;10.30;99.90;;;;;;4721980;30;20646;-44
2024/02/10 01:56:58;;;;;;;17.60;16.40;;;10.30;99.90;;;;;;4729796;30;20497;-40
2024/02/10 01:59:26;;;;;;;17.10;16.00;;;10.30;99.90;;;;;;4734238;30;20489;-43
2024/02/10 02:01:52;;;;;;;17.47;16.03;;;10.30;99.90;;;;;;4731438;30;20890;-40
2024/02/10 02:04:22;;;;;;;18.00;16.67;;;10.30;99.90;;;;;;4737811;30;20438;-42
2024/02/10 02:06:48;;;;;;;17.23;16.03;;;10.30;99.90;;;;;;4728261;30;20866;-41
2024/02/10 02:09:15;;;;;;;17.50;16.33;;;10.30;99.90;;;;;;4727013;30;20454;-41
2024/02/10 02:11:49;;;;;;;17.70;16.40;;;10.30;99.90;;;;;;4731671;30;20455;-42
2024/02/10 02:14:15;;;;;;;18.20;16.80;;;10.30;99.90;;;;;;4731882;30;20967;-44
2024/02/10 02:16:46;;;;;;;17.80;16.50;;;10.30;99.90;;;;;;4729301;30;20447;-41
2024/02/10 02:19:13;;;;;;;17.10;16.00;;;10.20;99.90;;;;;;4731603;30;21030;-43
2024/02/10 02:21:40;;;;;;;17.60;16.30;;;10.30;99.90;;;;;;4722770;30;20454;-44
2024/02/10 02:24:06;;;;;;;18.37;16.90;;;10.30;99.90;;;;;;4725010;30;20458;-45
2024/02/10 02:26:32;;;;;;;17.63;16.37;;;10.30;99.90;;;;;;4726133;30;21005;-56
2024/02/10 02:28:57;;;;;;;17.17;16.03;;;10.30;99.90;;;;;;4729737;30;20447;-59
2024/02/10 02:31:23;;;;;;;17.53;16.30;;;10.30;99.90;;;;;;4736366;30;20771;-57
2024/02/10 02:33:48;;;;;;;16.93;15.77;;;10.30;99.90;;;;;;4737884;30;20317;-57
2024/02/10 02:36:17;;;;;;;16.80;15.60;;;10.30;99.90;;;;;;4736016;30;20204;-57
2024/02/10 02:38:43;;;;;;;16.70;15.50;;;10.30;99.90;;;;;;4734531;30;20527;-58
2024/02/10 02:41:09;;;;;;;17.37;16.17;;;10.30;99.90;;;;;;4732963;30;20455;-58
2024/02/10 02:43:36;;;;;;;17.33;16.23;;;10.30;99.90;;;;;;4735197;30;20557;-59
2024/02/10 02:46:03;;;;;;;17.80;16.57;;;10.30;99.90;;;;;;4732391;30;20194;-58
2024/02/10 02:48:29;;;;;;;17.70;16.33;;;10.30;99.90;;;;;;4733865;30;20463;-55
2024/02/10 02:50:55;;;;;;;17.00;15.90;;;10.30;99.90;;;;;;4733654;30;20840;-58
2024/02/10 02:53:25;;;;;;;17.13;15.73;;;10.30;99.90;;;;;;4731086;30;21868;-56
2024/02/10 02:55:55;;;;;;;17.60;16.40;;;10.30;99.90;;;;;;4736390;30;20494;-58
2024/02/10 02:58:23;;;;;;;18.00;16.60;;;10.20;99.90;;;;;;4731575;30;20473;-43
2024/02/10 03:00:49;;;;;;;17.27;16.00;;;10.20;99.90;;;;;;4727797;30;20491;-42
2024/02/10 03:03:15;;;;;;;17.27;16.17;;;10.30;99.90;;;;;;4726845;30;20539;-40
2024/02/10 03:05:40;;;;;;;17.67;16.37;;;10.30;99.90;;;;;;4728249;30;20227;-40
2024/02/10 03:08:07;;;;;;;18.13;16.80;;;10.20;99.90;;;;;;4733944;30;20201;-41
2024/02/10 03:10:32;;;;;;;18.43;16.93;;;10.30;99.90;;;;;;4734308;30;20348;-43
2024/02/10 03:12:58;;;;;;;17.33;16.13;;;10.20;99.90;;;;;;4748713;30;20460;-42
2024/02/10 03:15:25;;;;;;;17.80;16.70;;;10.20;99.90;;;;;;4732866;30;20443;-45
2024/02/10 03:17:50;;;;;;;18.20;16.83;;;10.20;99.90;;;;;;4731984;30;20463;-42
2024/02/10 03:20:23;;;;;;;18.60;17.20;;;10.20;99.90;;;;;;4730004;30;21133;-40
2024/02/10 03:23:02;;;;;;;18.37;17.07;;;10.30;99.90;;;;;;4736135;30;20205;-40
2024/02/10 03:25:28;;;;;;;17.70;16.50;;;10.30;99.90;;;;;;4739156;30;20570;-41
2024/02/10 03:27:54;;;;;;;18.43;17.03;;;10.20;99.90;;;;;;4737029;30;20494;-46
2024/02/10 03:30:23;;;;;;;17.97;16.47;;;10.20;99.90;;;;;;4730956;30;20603;-45
2024/02/10 03:32:53;;;;;;;18.20;16.80;;;10.20;99.90;;;;;;4730527;30;20427;-41
2024/02/10 03:35:22;;;;;;;18.93;17.33;;;10.20;99.90;;;;;;4725462;30;20498;-41
2024/02/10 03:37:47;;;;;;;18.77;17.40;;;10.20;99.90;;;;;;4724087;30;20443;-46
2024/02/10 03:40:20;;;;;;;18.73;17.00;;;10.20;99.90;;;;;;4727414;30;20478;-41
2024/02/10 03:42:46;;;;;;;19.43;17.93;;;10.20;99.90;;;;;;4725486;30;20189;-41
2024/02/10 03:45:14;;;;;;;19.60;18.10;;;10.20;99.90;;;;;;4737648;30;20446;-45
2024/02/10 03:47:44;;;;;;;18.93;17.50;;;10.20;99.90;;;;;;4730200;30;20451;-42
2024/02/10 03:50:11;;;;;;;20.93;19.03;;;10.20;99.90;;;;;;4730329;30;20994;-45
2024/02/10 03:52:37;;;;;;;18.90;17.50;;;10.20;99.90;;;;;;4733920;30;20450;-42
2024/02/10 03:55:03;;;;;;;19.23;17.53;;;10.20;99.90;;;;;;4728948;30;20527;-41
2024/02/10 03:57:30;;;;;;;19.30;17.80;;;10.20;99.90;;;;;;4726461;30;20245;-40
2024/02/10 03:59:55;;;;;;;19.03;17.53;;;10.20;99.90;;;;;;4731012;30;20450;-42
2024/02/10 04:02:21;;;;;;;19.60;18.00;;;10.10;99.90;;;;;;4730396;30;20454;-45
2024/02/10 04:04:47;;;;;;;19.10;17.53;;;10.10;99.90;;;;;;4733378;30;20243;-44
2024/02/10 04:07:15;;;;;;;19.07;17.60;;;10.10;99.90;;;;;;4729821;30;20201;-42
2024/02/10 04:09:41;;;;;;;19.17;17.67;;;10.00;99.90;;;;;;4737646;30;20223;-43
2024/02/10 04:12:07;;;;;;;19.63;18.13;;;10.10;99.90;;;;;;4731349;30;20440;-40
2024/02/10 04:14:33;;;;;;;18.20;16.70;;;10.00;99.90;;;;;;4735955;30;20563;-42
2024/02/10 04:17:00;;;;;;;17.90;16.50;;;10.00;99.90;;;;;;4729388;30;20288;-43
2024/02/10 04:19:26;;;;;;;18.17;16.67;;;10.00;99.90;;;;;;4727352;30;20205;-40
2024/02/10 04:21:52;;;;;;;18.70;17.23;;;9.90;99.90;;;;;;4732113;30;20440;-44
2024/02/10 04:24:19;;;;;;;18.83;17.33;;;9.90;99.90;;;;;;4728885;30;20465;-41
2024/02/10 04:26:44;;;;;;;18.90;17.40;;;9.90;99.90;;;;;;4730592;30;20209;-41
2024/02/10 04:29:14;;;;;;;18.80;17.40;;;9.80;99.90;;;;;;4722506;30;20473;-43
2024/02/10 04:31:43;;;;;;;19.50;18.00;;;9.70;99.90;;;;;;4733511;30;20291;-42
2024/02/10 04:34:08;;;;;;;18.20;16.90;;;9.80;99.90;;;;;;4734017;30;20492;-45
2024/02/10 04:36:35;;;;;;;19.00;17.50;;;9.70;99.90;;;;;;4730741;30;20904;-46
2024/02/10 04:39:04;;;;;;;17.87;16.53;;;9.70;99.90;;;;;;4729091;30;20241;-43
2024/02/10 04:41:32;;;;;;;19.57;17.97;;;9.70;99.90;;;;;;4732364;30;20456;-42
2024/02/10 04:43:58;;;;;;;18.70;17.30;;;9.60;99.90;;;;;;4726795;30;21219;-41
2024/02/10 04:46:24;;;;;;;18.43;16.97;;;9.60;99.90;;;;;;4734135;30;20537;-46
2024/02/10 04:48:52;;;;;;;19.40;17.80;;;9.50;99.90;;;;;;4736442;30;20640;-58
2024/02/10 04:51:19;;;;;;;19.83;18.23;;;9.50;99.90;;;;;;4724770;30;20485;-58
2024/02/10 04:53:45;;;;;;;19.27;17.67;;;9.50;99.90;;;;;;4727086;30;20462;-54
2024/02/10 04:56:20;;;;;;;19.57;17.97;;;9.40;99.90;;;;;;4732748;30;20871;-57
2024/02/10 04:58:49;;;;;;;19.20;17.63;;;9.40;99.90;;;;;;4723957;30;21294;-57
2024/02/10 05:01:19;;;;;;;18.10;16.60;;;9.40;99.90;;;;;;4732486;30;20606;-57
2024/02/10 05:03:47;;;;;;;18.70;17.40;;;9.40;99.90;;;;;;4726408;30;20553;-59
2024/02/10 05:06:14;;;;;;;18.17;16.77;;;9.40;99.90;;;;;;4729460;30;20551;-58
2024/02/10 05:08:39;;;;;;;19.53;17.97;;;9.40;99.90;;;;;;4729868;30;20477;-58
2024/02/10 05:11:05;;;;;;;20.03;18.30;;;9.40;99.90;;;;;;4736724;30;20482;-58
2024/02/10 05:13:31;;;;;;;18.13;16.83;;;9.40;99.90;;;;;;4727065;30;20204;-58
2024/02/10 05:15:57;;;;;;;20.10;18.40;;;9.40;99.90;;;;;;4728842;30;20901;-58
2024/02/10 05:18:23;;;;;;;18.90;17.30;;;9.40;99.90;;;;;;4723421;30;20459;-40
2024/02/10 05:20:48;;;;;;;18.70;17.20;;;9.40;99.90;;;;;;4722403;30;20204;-42
2024/02/10 05:23:16;;;;;;;18.53;17.10;;;9.40;99.90;;;;;;4723512;30;20201;-41
2024/02/10 05:25:42;;;;;;;19.70;18.10;;;9.50;99.90;;;;;;4736273;30;20215;-40
2024/02/10 05:28:07;;;;;;;20.10;18.43;;;9.50;99.90;;;;;;4735083;30;20451;-40
2024/02/10 05:30:33;;;;;;;19.17;17.70;;;9.50;99.90;;;;;;4725965;30;20853;-44
2024/02/10 05:33:04;;;;;;;18.80;17.40;;;9.50;99.90;;;;;;4735938;30;20200;-40
2024/02/10 05:35:31;;;;;;;19.40;17.80;;;9.50;99.90;;;;;;4726693;30;20288;-45
2024/02/10 05:37:58;;;;;;;18.73;17.43;;;9.60;99.90;;;;;;4733486;30;20446;-42
2024/02/10 05:40:26;;;;;;;19.73;18.10;;;9.60;99.90;;;;;;4733089;30;20435;-41
2024/02/10 05:42:56;;;;;;;19.20;17.80;;;9.60;99.90;;;;;;4729060;30;20459;-41
2024/02/10 05:45:22;;;;;;;20.33;18.53;;;9.60;99.90;;;;;;4728990;30;20508;-41
2024/02/10 05:47:52;;;;;;;18.67;17.23;;;9.60;99.90;;;;;;4736052;30;21523;-41
2024/02/10 05:50:22;;;;;;;18.40;17.10;;;9.60;99.90;;;;;;4723705;30;20217;-41
2024/02/10 05:52:49;;;;;;;19.70;18.03;;;9.60;99.90;;;;;;4727426;30;20456;-42
2024/02/10 05:55:26;;;;;;;18.63;17.20;;;9.60;99.90;;;;;;4729709;30;20458;-44
2024/02/10 05:58:01;;;;;;;18.90;17.20;;;9.70;99.90;;;;;;4721944;30;20479;-43
2024/02/10 06:00:27;;;;;;;18.40;17.00;;;9.70;99.90;;;;;;4724738;30;20458;-42
2024/02/10 06:02:55;;;;;;;19.30;17.83;;;9.70;99.90;;;;;;4748644;30;20446;-44
2024/02/10 06:05:22;;;;;;;18.93;17.33;;;9.70;99.90;;;;;;4738876;30;20463;-40
2024/02/10 06:07:48;;;;;;;20.20;18.50;;;9.70;99.90;;;;;;4731514;30;22155;-55
2024/02/10 06:10:14;;;;;;;20.10;18.50;;;9.70;99.90;;;;;;4729605;30;20569;-58
2024/02/10 06:12:43;;;;;;;20.33;18.83;;;9.80;99.90;;;;;;4731299;30;20450;-57
2024/02/10 06:15:10;;;;;;;19.00;17.50;;;9.80;99.90;;;;;;4732754;30;20873;-58
2024/02/10 06:17:40;;;;;;;18.70;17.20;;;9.80;99.90;;;;;;4737346;30;20457;-58
2024/02/10 06:20:13;;;;;;;19.40;17.90;;;9.80;99.90;;;;;;4724201;30;20855;-59
2024/02/10 06:22:40;;;;;;;17.33;16.23;;;9.80;99.90;;;;;;4735589;30;20889;-54
2024/02/10 06:25:07;;;;;;;19.27;17.77;;;9.80;99.90;;;;;;4747290;30;20458;-57
2024/02/10 06:27:34;;;;;;;18.60;17.30;;;9.80;99.90;;;;;;4736415;30;20532;-59
2024/02/10 06:30:01;;;;;;;19.23;17.53;;;9.80;99.90;;;;;;4722573;30;20532;-57
2024/02/10 06:32:26;;;;;;;18.03;16.63;;;9.80;99.90;;;;;;4730938;30;20555;-57
2024/02/10 06:34:52;;;;;;;18.90;17.50;;;9.80;99.90;;;;;;4733166;30;20546;-58
2024/02/10 06:37:25;;;;;;;18.63;17.10;;;9.80;99.90;;;;;;4737485;30;20285;-57
2024/02/10 06:39:50;;;;;;;18.70;17.30;;;9.90;99.90;;;;;;4733481;30;20451;-58
2024/02/10 06:42:17;;;;;;;19.60;17.97;;;9.80;99.90;;;;;;4738773;30;20496;-58
2024/02/10 06:44:43;;;;;;;19.93;18.03;;;9.90;99.90;;;;;;4736942;30;20212;-56
2024/02/10 06:47:09;;;;;;;19.17;17.57;;;9.80;99.90;;;;;;4734891;30;21659;-54
2024/02/10 06:49:35;;;;;;;18.00;16.70;;;9.80;99.90;;;;;;4725905;30;20693;-57
2024/02/10 06:52:04;;;;;;;20.00;18.27;;;9.90;99.90;;;;;;4752426;30;20207;-51
2024/02/10 06:54:29;;;;;;;20.07;18.37;;;9.90;99.90;;;;;;4725078;30;20447;-58
2024/02/10 06:56:57;;;;;;;18.57;17.07;;;9.90;99.90;;;;;;4731743;30;21279;-59
2024/02/10 06:59:26;;;;;;;24.60;22.33;;;9.90;99.90;;;;;;4733311;30;20189;-58
2024/02/10 07:01:54;;;;;;;20.17;18.47;;;9.90;99.90;;;;;;4723802;30;21312;-54
2024/02/10 07:04:23;;;;;;;20.90;18.80;;;9.90;99.90;;;;;;4722930;30;20451;-56
2024/02/10 07:06:53;;;;;;;19.13;17.40;;;9.90;99.90;;;;;;4723656;30;20443;-56
2024/02/10 07:09:21;;;;;;;20.00;18.40;;;9.90;99.90;;;;;;4726336;30;20889;-58
2024/02/10 07:11:48;;;;;;;19.83;17.77;;;10.00;99.90;;;;;;4724574;30;20455;-55
2024/02/10 07:14:14;;;;;;;18.83;17.23;;;10.00;99.90;;;;;;4725243;30;20455;-58
2024/02/10 07:16:40;;;;;;;20.50;18.70;;;10.10;99.90;;;;;;4724984;30;20797;-58
2024/02/10 07:19:06;;;;;;;19.53;17.83;;;10.10;99.90;;;;;;4724353;30;20458;-41
2024/02/10 07:21:33;;;;;;;19.67;17.87;;;10.10;99.90;;;;;;4728005;30;20652;-42
2024/02/10 07:24:05;;;;;;;19.47;17.73;;;10.10;99.90;;;;;;4726954;30;20471;-41
2024/02/10 07:26:32;;;;;;;20.53;18.70;;;10.20;99.90;;;;;;4728107;30;20994;-41
2024/02/10 07:28:58;;;;;;;20.83;18.60;;;10.20;99.90;;;;;;4734175;30;20450;-41
2024/02/10 07:31:26;;;;;;;20.00;18.10;;;10.20;99.90;;;;;;4729103;30;20490;-49
2024/02/10 07:34:01;;;;;;;18.70;17.10;;;10.20;99.90;;;;;;4730135;30;20463;-44
2024/02/10 07:36:35;;;;;;;19.20;17.20;;;10.30;99.90;;;;;;4724574;30;21237;-44
2024/02/10 07:39:07;;;;;;;19.47;17.53;;;10.30;99.90;;;;;;4740582;30;20435;-56
2024/02/10 07:41:39;;;;;;;20.77;18.80;;;10.30;99.90;;;;;;4732701;30;20461;-57
2024/02/10 07:44:07;;;;;;;18.40;16.70;;;10.30;99.90;;;;;;4733933;30;20475;-58
2024/02/10 07:46:34;;;;;;;18.10;16.43;;;10.40;99.90;;;;;;4731218;30;20793;-57
2024/02/10 07:49:07;;;;;;;18.20;16.50;;;10.40;99.90;;;;;;4731285;30;20873;-58
2024/02/10 07:51:33;;;;;;;18.80;17.20;;;10.40;99.90;;;;;;4733581;30;20592;-58
2024/02/10 07:53:59;;;;;;;17.47;16.07;;;10.50;99.90;;;;;;4740443;30;20534;-55
2024/02/10 07:56:28;;;;;;;17.73;16.23;;;10.50;99.90;;;;;;4734697;30;20836;-58
2024/02/10 07:59:02;;;;;;;16.80;15.50;;;10.60;99.90;;;;;;4727146;30;20491;-56
2024/02/10 08:01:31;;;;;;;17.20;15.80;;;10.60;99.90;;;;;;4723922;30;20877;-41
2024/02/10 08:03:57;;;;;;;16.67;14.43;;;10.70;99.90;;;;;;4726944;30;20440;-44
2024/02/10 08:06:32;;;;;;;17.50;16.10;;;10.70;99.90;;;;;;4724172;30;20452;-44
2024/02/10 08:09:00;;;;;;;16.43;15.10;;;10.70;99.90;;;;;;4724424;30;20495;-57
2024/02/10 08:11:29;;;;;;;16.37;14.97;;;10.70;99.90;;;;;;4723980;30;20986;-56
2024/02/10 08:13:57;;;;;;;15.73;14.37;;;10.70;99.90;;;;;;4722541;30;20990;-59
2024/02/10 08:16:30;;;;;;;15.63;14.43;;;10.70;99.90;;;;;;4731428;30;20458;-59
2024/02/10 08:18:56;;;;;;;15.80;14.60;;;10.80;99.90;;;;;;4739765;30;20923;-59
2024/02/10 08:21:24;;;;;;;16.73;15.43;;;10.80;99.90;;;;;;4721970;30;20455;-59
2024/02/10 08:23:57;;;;;;;15.07;13.97;;;10.80;99.90;;;;;;4723588;30;20554;-60
2024/02/10 08:26:25;;;;;;;15.60;14.47;;;11.00;99.90;;;;;;4729444;30;20443;-59
2024/02/10 08:28:51;;;;;;;15.10;14.03;;;11.20;99.90;;;;;;4739401;30;20443;-59
2024/02/10 08:31:20;;;;;;;15.87;14.77;;;11.50;99.90;;;;;;4729387;30;20483;-60
2024/02/10 08:33:48;;;;;;;14.70;13.70;;;11.90;99.90;;;;;;4727184;30;20501;-59
2024/02/10 08:36:15;;;;;;;15.40;14.30;;;12.40;99.90;;;;;;4729972;30;20450;-58
2024/02/10 08:38:41;;;;;;;15.40;14.20;;;13.00;99.90;;;;;;4739089;30;20419;-58
2024/02/10 08:41:06;;;;;;;15.10;14.10;;;13.50;68.60;;;;;;4737211;30;20485;-60
2024/02/10 08:43:32;;;;;;;15.13;14.13;;;13.90;7.20;;;;;;4731129;30;20341;-60
2024/02/10 08:46:00;;;;;;;14.97;13.97;;;14.00;2.20;;;;;;4739689;30;20207;-42
2024/02/10 08:48:26;;;;;;;14.57;13.67;;;14.40;1.00;;;;;;4736500;30;20260;-43
2024/02/10 08:50:53;;;;;;;15.53;14.50;;;14.60;1.00;;;;;;4732488;30;20563;-46
2024/02/10 08:53:19;;;;;;;14.63;13.63;;;14.60;1.00;;;;;;4738198;30;20943;-42
2024/02/10 08:55:45;;;;;;;14.63;13.50;;;14.60;1.00;;;;;;4739301;30;21041;-60
2024/02/10 08:58:11;;;;;;;15.43;14.40;;;14.40;1.00;;;;;;4738292;30;20437;-60
2024/02/10 09:00:38;;;;;;;15.53;14.43;;;14.10;1.00;;;;;;4739665;30;20578;-60
2024/02/10 09:03:05;;;;;;;16.80;15.70;;;13.80;1.00;;;;;;4736250;30;20223;-55
2024/02/10 09:05:30;;;;;;;15.03;14.03;;;13.70;1.00;;;;;;4739480;30;20508;-60
2024/02/10 09:07:56;;;;;;;15.50;14.40;;;13.50;1.00;;;;;;4726240;30;20443;-60
2024/02/10 09:10:22;;;;;;;15.77;14.70;;;13.70;1.00;;;;;;4738776;30;20635;-59
2024/02/10 09:12:47;;;;;;;15.33;14.23;;;13.70;1.00;;;;;;4729651;30;20228;-45
2024/02/10 09:15:13;;;;;;;18.53;17.13;;;13.70;1.00;;;;;;4740244;30;20201;-44
2024/02/10 09:17:39;;;;;;;15.90;14.60;;;13.60;1.00;;;;;;4728897;30;20196;-41
2024/02/10 09:20:08;;;;;;;17.40;16.10;;;13.60;1.00;;;;;;4734822;30;20432;-59
2024/02/10 09:22:34;;;;;;;16.37;15.30;;;13.50;1.00;;;;;;4723647;30;20262;-61
2024/02/10 09:25:00;;;;;;;14.37;13.47;;;13.50;1.00;;;;;;4729496;30;20470;-59
2024/02/10 09:27:26;;;;;;;16.90;15.73;;;13.50;1.00;;;;;;4733351;30;20523;-42
2024/02/10 09:29:54;;;;;;;16.00;14.90;;;13.50;1.00;;;;;;4733114;30;20804;-41
2024/02/10 09:32:20;;;;;;;17.00;15.70;;;13.40;1.00;;;;;;4735063;30;20280;-42
2024/02/10 09:34:46;;;;;;;16.77;15.47;;;13.40;1.00;;;;;;4736634;30;20502;-43
2024/02/10 09:37:14;;;;;;;16.03;15.03;;;13.50;1.00;;;;;;4734270;30;20455;-41
2024/02/10 09:39:41;;;;;;;16.43;15.30;;;13.50;1.00;;;;;;4742061;30;20521;-43
2024/02/10 09:42:11;;;;;;;17.40;16.10;;;13.40;1.00;;;;;;4740208;30;20503;-44
2024/02/10 09:44:37;;;;;;;16.70;15.37;;;13.20;1.00;;;;;;4738918;30;20438;-43
2024/02/10 09:47:07;;;;;;;17.03;15.83;;;13.20;1.00;;;;;;4755669;30;20462;-44
2024/02/10 09:49:33;;;;;;;18.00;16.70;;;13.30;1.00;;;;;;4737050;30;20454;-43
2024/02/10 09:51:59;;;;;;;17.60;16.27;;;13.60;1.00;;;;;;4738728;30;21309;-42
2024/02/10 09:54:24;;;;;;;17.70;16.23;;;13.60;1.00;;;;;;4743414;30;20434;-60
2024/02/10 09:56:51;;;;;;;17.53;16.30;;;13.60;1.00;;;;;;4742374;30;20244;-57
2024/02/10 09:59:22;;;;;;;18.60;17.07;;;13.60;1.00;;;;;;4732672;30;20250;-60
2024/02/10 10:01:49;;;;;;;17.80;16.30;;;13.60;1.00;;;;;;4735817;30;20431;-58
2024/02/10 10:04:16;;;;;;;17.23;15.80;;;13.70;1.00;;;;;;4734239;30;20454;-57
2024/02/10 10:06:44;;;;;;;18.57;16.90;;;13.80;1.00;;;;;;4742049;30;20443;-58
2024/02/10 10:09:12;;;;;;;18.30;17.03;;;13.80;1.00;;;;;;4735801;30;20472;-54
2024/02/10 10:11:43;;;;;;;18.63;17.23;;;13.70;1.00;;;;;;4736964;30;20569;-58
2024/02/10 10:14:09;;;;;;;18.27;16.90;;;13.60;1.00;;;;;;4737070;30;20434;-57
2024/02/10 10:16:35;;;;;;;19.13;17.53;;;13.60;1.00;;;;;;4736760;30;20448;-57
2024/02/10 10:19:01;;;;;;;18.33;16.73;;;13.60;1.00;;;;;;4738385;30;20196;-57
2024/02/10 10:21:30;;;;;;;18.57;16.93;;;13.50;1.00;;;;;;4735271;30;20450;-48
2024/02/10 10:23:57;;;;;;;19.40;17.80;;;13.60;1.00;;;;;;4739499;30;20452;-58
2024/02/10 10:26:23;;;;;;;19.10;17.70;;;13.60;1.00;;;;;;4731559;30;20473;-58
2024/02/10 10:28:49;;;;;;;21.10;19.23;;;13.70;1.00;;;;;;4740013;30;20511;-58
2024/02/10 10:31:18;;;;;;;20.73;18.93;;;13.90;1.00;;;;;;4742458;30;20505;-58
2024/02/10 10:33:48;;;;;;;19.83;18.10;;;14.30;1.00;;;;;;4735150;30;20439;-57
2024/02/10 10:36:17;;;;;;;21.00;19.20;;;14.60;1.00;;;;;;4741303;30;20628;-57
2024/02/10 10:38:46;;;;;;;20.20;18.50;;;14.90;1.00;;;;;;4741178;30;20430;-58
2024/02/10 10:41:18;;;;;;;21.37;19.43;;;15.20;1.00;;;;;;4742851;30;21530;-57
2024/02/10 10:43:45;;;;;;;20.40;18.80;;;15.50;1.00;;;;;;4731296;30;20435;-57
2024/02/10 10:46:19;;;;;;;21.10;19.40;;;15.70;1.00;;;;;;4735366;30;20443;-58
2024/02/10 10:48:46;;;;;;;21.73;19.83;;;15.70;1.00;;;;;;4729421;30;20437;-56
2024/02/10 10:51:13;;;;;;;22.10;20.10;;;15.70;1.00;;;;;;4737926;30;20474;-58
2024/02/10 10:53:42;;;;;;;20.53;18.83;;;15.70;1.00;;;;;;4735677;30;20439;-58
2024/02/10 10:56:11;;;;;;;20.73;18.97;;;16.10;1.00;;;;;;4730285;30;20823;-58
2024/02/10 10:58:42;;;;;;;22.00;20.20;;;16.80;1.00;;;;;;4732630;30;20477;-58
2024/02/10 11:01:09;;;;;;;20.30;18.80;;;17.50;1.00;;;;;;4728557;30;20440;-56
2024/02/10 11:03:37;;;;;;;21.23;19.70;;;18.20;99.90;;;;;;4732181;30;20432;-43
2024/02/10 11:06:12;;;;;;;21.40;19.70;;;18.40;99.10;;;;;;4728466;30;20443;-45
2024/02/10 11:08:42;;;;;;;21.10;19.30;;;18.80;96.90;;;;;;4735256;30;20447;-40
2024/02/10 11:11:08;;;;;;;22.60;20.90;;;19.00;95.80;;;;;;4741936;30;20482;-41
2024/02/10 11:13:35;;;;;;;22.60;20.90;;;18.70;94.70;;;;;;4741544;30;20422;-41
2024/02/10 11:16:15;;;;;;;21.87;20.17;;;18.50;95.30;;;;;;4730045;30;20447;-43
2024/02/10 11:18:43;;;;;;;21.93;20.13;;;18.70;97.00;;;;;;4735049;30;20451;-41
2024/02/10 11:21:21;;;;;;;22.27;20.47;;;18.80;96.70;;;;;;4739708;30;20438;-43
2024/02/10 11:24:16;;;;;;;23.00;21.20;;;18.90;94.70;;;;;;4738350;30;21148;-44
2024/02/10 11:26:44;;;;;;;22.93;21.03;;;18.80;94.00;;;;;;4738089;30;20422;-40
2024/02/10 11:29:15;;;;;;;21.87;20.17;;;19.00;94.50;;;;;;4737246;30;20431;-43
2024/02/10 11:31:41;;;;;;;22.13;20.17;;;19.30;94.20;;;;;;4738272;30;20493;-40
2024/02/10 11:34:14;;;;;;;22.57;20.77;;;19.30;93.00;;;;;;4738055;30;21441;-43
2024/02/10 11:37:03;;;;;;;22.20;20.40;;;19.20;92.20;;;;;;4739824;30;20662;-44
2024/02/10 11:39:27;;;;;;;22.30;20.60;;;19.10;93.20;;;;;;4736861;30;20439;-58
2024/02/10 11:41:58;;;;;;;22.30;20.40;;;19.30;93.90;;;;;;4741833;30;20446;-58
2024/02/10 11:44:28;;;;;;;22.40;20.70;;;19.50;93.40;;;;;;4737395;30;20294;-58
2024/02/10 11:46:59;;;;;;;22.27;20.57;;;19.60;92.70;;;;;;4731442;30;20927;-57
2024/02/10 11:49:25;;;;;;;21.60;20.10;;;19.50;91.50;;;;;;4748734;30;20435;-57
2024/02/10 11:51:56;;;;;;;22.50;20.67;;;19.50;91.40;;;;;;4741537;30;20438;-58
2024/02/10 11:54:23;;;;;;;22.30;20.50;;;19.60;91.30;;;;;;4738408;30;20923;-58
2024/02/10 11:56:50;;;;;;;23.00;21.30;;;19.50;90.60;;;;;;4734449;30;21406;-57
2024/02/10 11:59:16;;;;;;;22.03;20.40;;;19.50;90.20;;;;;;4743851;30;20443;-57
2024/02/10 12:01:42;;;;;;;22.33;20.63;;;19.30;90.50;;;;;;4726691;30;20434;-58
2024/02/10 12:04:18;;;;;;;23.13;21.10;;;19.30;89.90;;;;;;4731258;30;20443;-58
2024/02/10 12:06:46;;;;;;;23.50;21.60;;;18.90;90.70;;;;;;4749245;30;20423;-57
2024/02/10 12:09:12;;;;;;;22.80;21.00;;;18.80;91.90;;;;;;4731293;30;20442;-54
2024/02/10 12:11:38;;;;;;;23.73;21.83;;;18.70;91.40;;;;;;4735169;30;20474;-57
2024/02/10 12:14:13;;;;;;;22.80;21.00;;;18.70;92.70;;;;;;4741064;30;20443;-52
2024/02/10 12:16:45;;;;;;;21.00;19.40;;;18.70;92.50;;;;;;4723074;30;20664;-57
2024/02/10 12:19:11;;;;;;;21.40;19.70;;;19.00;91.10;;;;;;4734867;30;20461;-57
2024/02/10 12:21:41;;;;;;;22.33;20.40;;;19.10;91.00;;;;;;4729376;30;20450;-55
2024/02/10 12:24:11;;;;;;;21.07;19.57;;;19.40;90.80;;;;;;4731793;30;20876;-57
2024/02/10 12:26:37;;;;;;;22.40;20.73;;;19.90;90.00;;;;;;4732574;30;20525;-40
2024/02/10 12:29:04;;;;;;;22.10;20.40;;;20.30;87.30;;;;;;4740783;30;20450;-40
2024/02/10 12:31:30;;;;;;;20.87;19.30;;;20.60;83.20;;;;;;4733168;30;20561;-42
2024/02/10 12:33:56;;;;;;;21.83;20.23;;;21.00;81.70;;;;;;4728434;30;20443;-43